Time;durP1;ratioP1;P1;durP2;ratioP2;P2;SDS_P1;SDS_P2;PMS_P1;PMS_P2;Temp;Humidity;BMP_temperature;BMP_pressure;BME280_temperature;BME280_humidity;BME280_pressure;Samples;Min_cycle;Max_cycle;Signal;HPM_P1;HPM_P2
2023/12/20 00:02:23;;;;;;;;;;;-0.80;99.90;;;;;;5029613;28;19906;-77
2023/12/20 00:04:48;;;;;;;;;;;-0.70;99.90;;;;;;5014527;28;19924;-77
2023/12/20 00:07:14;;;;;;;;;;;-0.60;99.90;;;;;;5029547;28;19952;-77
2023/12/20 00:09:39;;;;;;;;;;;-0.70;99.90;;;;;;5031030;28;19909;-78
2023/12/20 00:12:05;;;;;;;;;;;-0.60;99.90;;;;;;5016754;28;20066;-78
2023/12/20 00:14:31;;;;;;;;;;;-0.70;99.90;;;;;;5031925;28;20043;-77
2023/12/20 00:16:56;;;;;;;;;;;-0.70;99.90;;;;;;5032464;28;20048;-78
2023/12/20 00:19:22;;;;;;;;;;;-0.80;99.90;;;;;;5016679;28;19905;-77
2023/12/20 00:21:47;;;;;;;;;;;-0.80;99.90;;;;;;5032052;28;19914;-77
2023/12/20 00:24:12;;;;;;;;;;;-0.70;99.90;;;;;;5032269;28;19997;-77
2023/12/20 00:26:38;;;;;;;;;;;-0.70;99.90;;;;;;5016884;28;19909;-78
2023/12/20 00:29:03;;;;;;;;;;;-0.70;99.90;;;;;;5032375;28;19920;-77
2023/12/20 00:31:29;;;;;;;;;;;-0.80;99.90;;;;;;5018707;28;19935;-77
2023/12/20 00:33:55;;;;;;;;;;;-0.80;99.90;;;;;;5034619;28;19909;-78
2023/12/20 00:36:20;;;;;;;;;;;-0.80;99.90;;;;;;5032895;28;19917;-78
2023/12/20 00:38:46;;;;;;;;;;;-0.90;99.90;;;;;;5015375;28;19905;-77
2023/12/20 00:41:11;;;;;;;;;;;-0.90;99.90;;;;;;5031106;28;20393;-77
2023/12/20 00:43:37;;;;;;;;;;;-1.00;99.90;;;;;;5030323;28;20515;-77
2023/12/20 00:46:02;;;;;;;;;;;-1.00;99.90;;;;;;5015227;28;20373;-76
2023/12/20 00:48:30;;;;;;;;;;;-1.00;99.90;;;;;;5026920;28;19910;-78
2023/12/20 00:50:55;;;;;;;;;;;-1.00;99.90;;;;;;5012598;28;19913;-77
2023/12/20 00:53:21;;;;;;;;;;;-0.90;99.90;;;;;;5012132;28;19931;-76
2023/12/20 00:55:46;;;;;;;;;;;-0.90;99.90;;;;;;5012261;28;19905;-76
2023/12/20 00:58:12;;;;;;;;;;;-1.00;99.90;;;;;;5027425;28;20352;-77
2023/12/20 01:00:37;;;;;;;;;;;-1.10;99.90;;;;;;5027833;28;19956;-77
2023/12/20 01:03:03;;;;;;;;;;;-1.10;99.90;;;;;;5013131;28;19910;-76
2023/12/20 01:05:29;;;;;;;;;;;-1.10;99.90;;;;;;5015252;28;20345;-77
2023/12/20 01:07:54;;;;;;;;;;;-1.00;99.90;;;;;;5014082;28;19917;-76
2023/12/20 01:10:20;;;;;;;;;;;-1.00;99.90;;;;;;5013660;28;19924;-77
2023/12/20 01:12:45;;;;;;;;;;;-1.10;99.90;;;;;;5011975;28;20274;-77
2023/12/20 01:15:11;;;;;;;;;;;-1.10;99.90;;;;;;5027613;28;19916;-76
2023/12/20 01:17:36;;;;;;;;;;;-1.10;99.90;;;;;;5012201;28;19909;-76
2023/12/20 01:20:02;;;;;;;;;;;-1.20;99.90;;;;;;5011035;28;20003;-77
2023/12/20 01:22:28;;;;;;;;;;;-1.30;99.90;;;;;;5015441;28;20297;-76
2023/12/20 01:24:53;;;;;;;;;;;-1.40;99.90;;;;;;5031798;28;19967;-77
2023/12/20 01:27:19;;;;;;;;;;;-1.40;99.90;;;;;;5017695;28;19906;-77
2023/12/20 01:29:44;;;;;;;;;;;-1.50;99.90;;;;;;5017340;28;19917;-77
2023/12/20 01:32:10;;;;;;;;;;;-1.60;99.90;;;;;;5032602;28;19917;-77
2023/12/20 01:34:35;;;;;;;;;;;-1.60;99.90;;;;;;5017934;28;19913;-76
2023/12/20 01:37:01;;;;;;;;;;;-1.60;99.90;;;;;;5017637;28;19959;-76
2023/12/20 01:39:27;;;;;;;;;;;-1.60;99.90;;;;;;5017234;28;19905;-77
2023/12/20 01:41:52;;;;;;;;;;;-1.60;99.90;;;;;;5032415;28;19906;-76
2023/12/20 01:44:18;;;;;;;;;;;-1.50;99.90;;;;;;5017457;28;19905;-77
2023/12/20 01:46:43;;;;;;;;;;;-1.60;99.90;;;;;;5017559;28;19910;-77
2023/12/20 01:49:09;;;;;;;;;;;-1.60;99.90;;;;;;5032765;28;19906;-77
2023/12/20 01:51:35;;;;;;;;;;;-1.70;99.90;;;;;;5035990;28;19923;-77
2023/12/20 01:54:01;;;;;;;;;;;-1.60;99.90;;;;;;5022091;28;19906;-78
2023/12/20 01:56:28;;;;;;;;;;;-1.80;99.90;;;;;;5021946;28;19964;-78
2023/12/20 01:58:55;;;;;;;;;;;-1.70;99.90;;;;;;5036274;28;19932;-78
2023/12/20 02:01:20;;;;;;;;;;;-1.80;99.90;;;;;;5020906;28;19916;-78
2023/12/20 02:03:46;;;;;;;;;;;-1.80;99.90;;;;;;5021704;28;19905;-77
2023/12/20 02:06:11;;;;;;;;;;;-1.80;99.90;;;;;;5039673;28;19924;-79
2023/12/20 02:08:37;;;;;;;;;;;-1.80;99.90;;;;;;5043112;28;20396;-77
2023/12/20 02:11:03;;;;;;;;;;;-1.80;99.90;;;;;;5043536;28;20367;-78
2023/12/20 02:13:28;;;;;;;;;;;-1.80;99.90;;;;;;5043800;28;19937;-78
2023/12/20 02:15:57;;;;;;;;;;;-1.80;99.90;;;;;;5027876;28;19940;-78
2023/12/20 02:18:22;;;;;;;;;;;-1.80;99.90;;;;;;5043624;28;20433;-78
2023/12/20 02:20:48;;;;;;;;;;;-1.80;99.90;;;;;;5021498;28;19905;-78
2023/12/20 02:23:13;;;;;;;;;;;-1.70;99.90;;;;;;5014050;28;20010;-77
2023/12/20 02:25:39;;;;;;;;;;;-1.70;99.90;;;;;;5015211;28;19964;-77
2023/12/20 02:28:05;;;;;;;;;;;-1.70;99.90;;;;;;5015233;28;19920;-77
2023/12/20 02:30:31;;;;;;;;;;;-1.70;99.90;;;;;;5030473;28;19917;-76
2023/12/20 02:32:57;;;;;;;;;;;-1.80;99.90;;;;;;5029146;28;19916;-76
2023/12/20 02:35:22;;;;;;;;;;;-1.90;99.90;;;;;;5031781;28;19911;-78
2023/12/20 02:37:48;;;;;;;;;;;-2.00;99.90;;;;;;5032577;28;19976;-77
2023/12/20 02:40:13;;;;;;;;;;;-2.00;99.90;;;;;;5033363;28;19912;-77
2023/12/20 02:42:39;;;;;;;;;;;-1.80;99.90;;;;;;5033120;28;19905;-78
2023/12/20 02:45:05;;;;;;;;;;;-1.90;99.90;;;;;;5019016;28;19917;-78
2023/12/20 02:47:30;;;;;;;;;;;-1.70;99.90;;;;;;5019472;28;19996;-79
2023/12/20 02:49:56;;;;;;;;;;;-1.80;99.90;;;;;;5021083;28;19913;-78
2023/12/20 02:52:23;;;;;;;;;;;-1.80;99.90;;;;;;5032443;28;20429;-77
2023/12/20 02:54:48;;;;;;;;;;;-1.90;99.90;;;;;;5032670;28;19913;-77
2023/12/20 02:57:14;;;;;;;;;;;-1.80;99.90;;;;;;5032905;28;19920;-78
2023/12/20 02:59:39;;;;;;;;;;;-1.80;99.90;;;;;;5031628;28;19912;-77
2023/12/20 03:02:05;;;;;;;;;;;-1.70;99.90;;;;;;5031258;28;19932;-77
2023/12/20 03:04:30;;;;;;;;;;;-1.80;99.90;;;;;;5016227;28;20409;-77
2023/12/20 03:06:56;;;;;;;;;;;-1.90;99.90;;;;;;5018330;28;20333;-78
2023/12/20 03:09:21;;;;;;;;;;;-1.70;99.90;;;;;;5021453;28;19914;-78
2023/12/20 03:11:47;;;;;;;;;;;-1.80;99.90;;;;;;5037627;28;19909;-78
2023/12/20 03:14:12;;;;;;;;;;;-1.70;99.90;;;;;;5022480;28;19910;-78
2023/12/20 03:16:38;;;;;;;;;;;-1.70;99.90;;;;;;5037674;28;19905;-78
2023/12/20 03:19:03;;;;;;;;;;;-1.60;99.90;;;;;;5022765;28;19905;-78
2023/12/20 03:21:29;;;;;;;;;;;-1.60;99.90;;;;;;5022547;28;19909;-78
2023/12/20 03:23:54;;;;;;;;;;;-1.60;99.90;;;;;;5022852;28;19913;-79
2023/12/20 03:26:20;;;;;;;;;;;-1.60;99.90;;;;;;5038135;28;19905;-78
2023/12/20 03:28:45;;;;;;;;;;;-1.50;99.90;;;;;;5021804;28;19905;-78
2023/12/20 03:31:11;;;;;;;;;;;-1.40;99.90;;;;;;5022830;28;19913;-78
2023/12/20 03:33:36;;;;;;;;;;;-1.40;99.90;;;;;;5022709;28;19905;-77
2023/12/20 03:36:02;;;;;;;;;;;-1.40;99.90;;;;;;5022410;28;19937;-78
2023/12/20 03:38:27;;;;;;;;;;;-1.40;99.90;;;;;;5020624;28;19913;-78
2023/12/20 03:40:53;;;;;;;;;;;-1.40;99.90;;;;;;5037758;28;19916;-78
2023/12/20 03:43:18;;;;;;;;;;;-1.40;99.90;;;;;;5036873;28;19916;-78
2023/12/20 03:45:44;;;;;;;;;;;-1.30;99.90;;;;;;5022951;28;19909;-78
2023/12/20 03:48:09;;;;;;;;;;;-1.40;99.90;;;;;;5021862;28;19909;-78
2023/12/20 03:50:35;;;;;;;;;;;-1.40;99.90;;;;;;5015844;28;19917;-77
2023/12/20 03:53:01;;;;;;;;;;;-1.30;99.90;;;;;;5014328;28;20370;-77
2023/12/20 03:55:26;;;;;;;;;;;-1.20;99.90;;;;;;5014616;28;19960;-77
2023/12/20 03:57:52;;;;;;;;;;;-1.10;99.90;;;;;;5029920;28;20366;-76
2023/12/20 04:00:18;;;;;;;;;;;-1.10;99.90;;;;;;5030052;28;19912;-77
2023/12/20 04:02:43;;;;;;;;;;;-1.10;99.90;;;;;;5015100;28;19916;-77
2023/12/20 04:05:09;;;;;;;;;;;-1.00;99.90;;;;;;5015071;28;19968;-77
2023/12/20 04:07:35;;;;;;;;;;;-1.00;99.90;;;;;;5029298;28;19970;-77
2023/12/20 04:10:00;;;;;;;;;;;-1.00;99.90;;;;;;5017573;28;19913;-78
2023/12/20 04:12:27;;;;;;;;;;;-1.20;99.90;;;;;;5018049;28;19912;-78
2023/12/20 04:14:52;;;;;;;;;;;-1.10;99.90;;;;;;5016708;28;19983;-77
2023/12/20 04:17:18;;;;;;;;;;;-1.30;99.90;;;;;;5017268;28;20381;-78
2023/12/20 04:19:43;;;;;;;;;;;-1.20;99.90;;;;;;5030161;28;19931;-78
2023/12/20 04:22:09;;;;;;;;;;;-1.30;99.90;;;;;;5031817;28;19906;-77
2023/12/20 04:24:34;;;;;;;;;;;-1.30;99.90;;;;;;5024062;28;19914;-78
2023/12/20 04:27:00;;;;;;;;;;;-1.20;99.90;;;;;;5024338;28;19952;-78
2023/12/20 04:29:26;;;;;;;;;;;-1.20;99.90;;;;;;5024914;28;19909;-78
2023/12/20 04:31:51;;;;;;;;;;;-1.40;99.90;;;;;;5024893;28;19913;-78
2023/12/20 04:34:17;;;;;;;;;;;-1.30;99.90;;;;;;5025640;28;19905;-78
2023/12/20 04:36:43;;;;;;;;;;;-1.30;99.90;;;;;;5039595;28;19968;-79
2023/12/20 04:39:08;;;;;;;;;;;-1.30;99.90;;;;;;5024100;28;19909;-77
2023/12/20 04:41:34;;;;;;;;;;;-1.20;99.90;;;;;;5024944;28;19906;-77
2023/12/20 04:44:00;;;;;;;;;;;-1.30;99.90;;;;;;5024753;28;19905;-79
2023/12/20 04:46:26;;;;;;;;;;;-1.20;99.90;;;;;;5038560;28;19929;-78
2023/12/20 04:48:51;;;;;;;;;;;-1.20;99.90;;;;;;5039348;28;19909;-78
2023/12/20 04:51:17;;;;;;;;;;;-1.30;99.90;;;;;;5038996;28;19989;-79
2023/12/20 04:53:42;;;;;;;;;;;-1.30;99.90;;;;;;5022847;28;19905;-78
2023/12/20 04:56:08;;;;;;;;;;;-1.40;99.90;;;;;;5018972;28;20377;-76
2023/12/20 04:58:33;;;;;;;;;;;-1.50;99.90;;;;;;5036374;28;19905;-78
2023/12/20 05:00:59;;;;;;;;;;;-1.40;99.90;;;;;;5021222;28;19909;-78
2023/12/20 05:03:24;;;;;;;;;;;-1.30;99.90;;;;;;5033806;28;20302;-76
2023/12/20 05:05:50;;;;;;;;;;;-1.50;99.90;;;;;;5033255;28;19941;-77
2023/12/20 05:08:15;;;;;;;;;;;-1.40;99.90;;;;;;5018026;28;19917;-77
2023/12/20 05:10:41;;;;;;;;;;;-1.40;99.90;;;;;;5018362;28;20282;-76
2023/12/20 05:13:07;;;;;;;;;;;-1.40;99.90;;;;;;5033438;28;19910;-77
2023/12/20 05:15:34;;;;;;;;;;;-1.60;99.90;;;;;;5018251;28;20338;-78
2023/12/20 05:18:00;;;;;;;;;;;-1.60;99.90;;;;;;5019033;28;19913;-76
2023/12/20 05:20:25;;;;;;;;;;;-1.80;99.90;;;;;;5020392;28;19909;-77
2023/12/20 05:22:50;;;;;;;;;;;-1.80;99.90;;;;;;5037240;28;20334;-77
2023/12/20 05:25:16;;;;;;;;;;;-1.80;99.90;;;;;;5022885;28;19921;-77
2023/12/20 05:27:42;;;;;;;;;;;-1.80;99.90;;;;;;5022202;28;19909;-77
2023/12/20 05:30:07;;;;;;;;;;;-1.90;99.90;;;;;;5022818;28;19913;-77
2023/12/20 05:32:33;;;;;;;;;;;-1.90;99.90;;;;;;5022604;28;19909;-78
2023/12/20 05:34:58;;;;;;;;;;;-1.90;99.90;;;;;;5021655;28;19913;-78
2023/12/20 05:37:24;;;;;;;;;;;-1.90;99.90;;;;;;5036045;28;19913;-77
2023/12/20 05:39:49;;;;;;;;;;;-1.80;99.90;;;;;;5036166;28;20329;-78
2023/12/20 05:42:15;;;;;;;;;;;-1.80;99.90;;;;;;5020151;28;20311;-76
2023/12/20 05:44:40;;;;;;;;;;;-1.90;99.90;;;;;;5017416;28;19913;-76
2023/12/20 05:47:06;;;;;;;;;;;-1.90;99.90;;;;;;5018440;28;19959;-75
2023/12/20 05:49:32;;;;;;;;;;;-1.90;99.90;;;;;;5033861;28;19919;-76
2023/12/20 05:51:57;;;;;;;;;;;-2.00;99.90;;;;;;5018779;28;19913;-77
2023/12/20 05:54:23;;;;;;;;;;;-1.90;99.90;;;;;;5034038;28;19940;-76
2023/12/20 05:56:48;;;;;;;;;;;-1.90;99.90;;;;;;5034064;28;19916;-76
2023/12/20 05:59:14;;;;;;;;;;;-1.90;99.90;;;;;;5019227;28;20290;-77
2023/12/20 06:01:39;;;;;;;;;;;-1.90;99.90;;;;;;5019383;28;19913;-77
2023/12/20 06:04:05;;;;;;;;;;;-1.80;99.90;;;;;;5033871;28;19913;-78
2023/12/20 06:06:35;;;;;;;;;;;-1.80;99.90;;;;;;5029044;28;19917;-79
2023/12/20 06:09:02;;;;;;;;;;;-1.80;99.90;;;;;;5021965;28;19912;-78
2023/12/20 06:11:28;;;;;;;;;;;-1.80;99.90;;;;;;5031809;28;19924;-77
2023/12/20 06:13:53;;;;;;;;;;;-1.90;99.90;;;;;;5015288;28;19906;-77
2023/12/20 06:16:19;;;;;;;;;;;-1.90;99.90;;;;;;5019139;28;19909;-77
2023/12/20 06:18:44;;;;;;;;;;;-2.00;99.90;;;;;;5033130;28;19912;-77
2023/12/20 06:21:12;;;;;;;;;;;-1.90;99.90;;;;;;5031922;28;19931;-77
2023/12/20 06:23:38;;;;;;;;;;;-1.90;99.90;;;;;;5016157;28;19909;-77
2023/12/20 06:26:04;;;;;;;;;;;-2.00;99.90;;;;;;5031429;28;20302;-76
2023/12/20 06:28:29;;;;;;;;;;;-2.20;99.90;;;;;;5015221;28;19912;-76
2023/12/20 06:30:56;;;;;;;;;;;-2.20;99.90;;;;;;5031785;28;19974;-77
2023/12/20 06:33:22;;;;;;;;;;;-2.20;99.90;;;;;;5015543;28;20366;-76
2023/12/20 06:35:48;;;;;;;;;;;-2.20;99.90;;;;;;5015997;28;19912;-76
2023/12/20 06:38:13;;;;;;;;;;;-2.10;99.90;;;;;;5015338;28;20032;-78
2023/12/20 06:40:39;;;;;;;;;;;-2.10;99.90;;;;;;5016258;28;19999;-78
2023/12/20 06:43:06;;;;;;;;;;;-2.00;99.90;;;;;;5031280;28;19913;-76
2023/12/20 06:45:32;;;;;;;;;;;-2.00;99.90;;;;;;5024733;28;19910;-77
2023/12/20 06:47:58;;;;;;;;;;;-1.90;99.90;;;;;;5031964;28;19912;-77
2023/12/20 06:50:24;;;;;;;;;;;-1.90;99.90;;;;;;5015859;28;20491;-77
2023/12/20 06:52:49;;;;;;;;;;;-1.90;99.90;;;;;;5016531;28;19913;-77
2023/12/20 06:55:15;;;;;;;;;;;-1.70;99.90;;;;;;5031426;28;20370;-77
2023/12/20 06:57:40;;;;;;;;;;;-1.60;99.90;;;;;;5030378;28;19909;-77
2023/12/20 07:00:06;;;;;;;;;;;-1.60;99.90;;;;;;5014717;28;19909;-76
2023/12/20 07:02:32;;;;;;;;;;;-1.60;99.90;;;;;;5015866;28;19916;-76
2023/12/20 07:04:57;;;;;;;;;;;-1.70;99.90;;;;;;5031033;28;19924;-78
2023/12/20 07:07:24;;;;;;;;;;;-1.70;99.90;;;;;;5014720;28;19964;-78
2023/12/20 07:09:49;;;;;;;;;;;-1.70;99.90;;;;;;5016790;28;19909;-76
2023/12/20 07:12:15;;;;;;;;;;;-1.70;99.90;;;;;;5020032;28;19909;-78
2023/12/20 07:14:40;;;;;;;;;;;-1.70;99.90;;;;;;5015874;28;19909;-76
2023/12/20 07:17:11;;;;;;;;;;;-1.70;99.90;;;;;;5014230;28;19963;-77
2023/12/20 07:19:37;;;;;;;;;;;-1.60;99.90;;;;;;5014142;28;19909;-76
2023/12/20 07:22:03;;;;;;;;;;;-1.60;99.90;;;;;;5014809;28;19909;-77
2023/12/20 07:24:29;;;;;;;;;;;-1.50;99.90;;;;;;5029218;28;19976;-77
2023/12/20 07:26:54;;;;;;;;;;;-1.40;99.90;;;;;;5012757;28;19909;-77
2023/12/20 07:29:20;;;;;;;;;;;-1.40;99.90;;;;;;5013173;28;20427;-78
2023/12/20 07:31:46;;;;;;;;;;;-1.50;99.90;;;;;;5029017;28;19913;-77
2023/12/20 07:34:11;;;;;;;;;;;-1.60;99.90;;;;;;5014271;28;19955;-77
2023/12/20 07:36:37;;;;;;;;;;;-1.60;99.90;;;;;;5030030;28;20095;-76
2023/12/20 07:39:03;;;;;;;;;;;-1.80;99.90;;;;;;5031103;28;19913;-77
2023/12/20 07:41:28;;;;;;;;;;;-1.70;99.90;;;;;;5015755;28;19905;-77
2023/12/20 07:43:54;;;;;;;;;;;-1.60;99.90;;;;;;5012718;28;19931;-76
2023/12/20 07:46:22;;;;;;;;;;;-1.70;99.90;;;;;;5013935;28;19915;-78
2023/12/20 07:48:48;;;;;;;;;;;-1.60;99.90;;;;;;5015869;28;19906;-76
2023/12/20 07:51:16;;;;;;;;;;;-1.50;99.90;;;;;;5015133;28;19944;-77
2023/12/20 07:53:41;;;;;;;;;;;-1.40;99.90;;;;;;5030478;28;20212;-77
2023/12/20 07:56:14;;;;;;;;;;;-1.40;99.90;;;;;;5016604;28;20429;-77
2023/12/20 07:58:39;;;;;;;;;;;-1.30;99.90;;;;;;5030857;28;19909;-76
2023/12/20 08:01:05;;;;;;;;;;;-1.30;99.90;;;;;;5015297;28;20441;-78
2023/12/20 08:03:30;;;;;;;;;;;-1.30;99.90;;;;;;5030919;28;19909;-77
2023/12/20 08:05:56;;;;;;;;;;;-1.30;99.90;;;;;;5015730;28;20389;-78
2023/12/20 08:08:22;;;;;;;;;;;-1.20;99.90;;;;;;5030585;28;19909;-77
2023/12/20 08:10:47;;;;;;;;;;;-1.10;99.90;;;;;;5014743;28;20134;-77
2023/12/20 08:13:13;;;;;;;;;;;-1.10;99.90;;;;;;5030179;28;19916;-77
2023/12/20 08:15:38;;;;;;;;;;;-1.30;99.90;;;;;;5015100;28;19905;-77
2023/12/20 08:18:04;;;;;;;;;;;-1.10;99.90;;;;;;5014975;28;19910;-77
2023/12/20 08:20:29;;;;;;;;;;;-1.20;99.90;;;;;;5016231;28;19906;-76
2023/12/20 08:22:55;;;;;;;;;;;-1.20;99.90;;;;;;5030756;28;20012;-78
2023/12/20 08:25:20;;;;;;;;;;;-1.20;99.90;;;;;;5016033;28;19906;-77
2023/12/20 08:27:46;;;;;;;;;;;-1.00;99.90;;;;;;5015675;28;19916;-78
2023/12/20 08:30:12;;;;;;;;;;;-1.00;99.90;;;;;;5031435;28;20286;-78
2023/12/20 08:32:37;;;;;;;;;;;-0.80;99.90;;;;;;5030757;28;19909;-77
2023/12/20 08:35:03;;;;;;;;;;;-1.00;99.90;;;;;;5015942;28;19912;-76
2023/12/20 08:37:29;;;;;;;;;;;-1.00;99.90;;;;;;5030055;28;19906;-77
2023/12/20 08:39:55;;;;;;;;;;;-1.00;99.90;;;;;;5015430;28;20405;-78
2023/12/20 08:42:21;;;;;;;;;;;-0.70;99.90;;;;;;5031164;28;19909;-77
2023/12/20 08:44:46;;;;;;;;;;;-0.40;99.90;;;;;;5015240;28;19906;-77
2023/12/20 08:47:13;;;;;;;;;;;-0.20;99.90;;;;;;5016579;28;19912;-77
2023/12/20 08:49:38;;;;;;;;;;;-0.20;99.90;;;;;;5031115;28;20420;-78
2023/12/20 08:52:04;;;;;;;;;;;0.00;99.90;;;;;;5031684;28;19909;-76
2023/12/20 08:54:30;;;;;;;;;;;0.00;99.90;;;;;;5031311;28;19905;-78
2023/12/20 08:56:55;;;;;;;;;;;0.10;99.90;;;;;;5030990;28;20438;-77
2023/12/20 08:59:21;;;;;;;;;;;0.10;99.90;;;;;;5015753;28;19905;-77
2023/12/20 09:01:48;;;;;;;;;;;0.20;99.90;;;;;;5016726;28;20389;-77
2023/12/20 09:04:13;;;;;;;;;;;0.20;99.90;;;;;;5016176;28;20425;-78
2023/12/20 09:06:39;;;;;;;;;;;0.20;99.90;;;;;;5032216;28;20047;-78
2023/12/20 09:09:04;;;;;;;;;;;0.20;99.90;;;;;;5017028;28;20661;-77
2023/12/20 09:11:30;;;;;;;;;;;0.30;99.90;;;;;;5016775;28;19917;-77
2023/12/20 09:13:55;;;;;;;;;;;0.30;99.90;;;;;;5032175;28;19960;-77
2023/12/20 09:16:21;;;;;;;;;;;0.40;99.90;;;;;;5016869;28;20353;-77
2023/12/20 09:18:46;;;;;;;;;;;0.40;99.90;;;;;;5016792;28;20289;-77
2023/12/20 09:21:12;;;;;;;;;;;0.40;99.90;;;;;;5019592;28;19905;-77
2023/12/20 09:23:38;;;;;;;;;;;0.30;99.90;;;;;;5035572;28;20281;-77
2023/12/20 09:26:04;;;;;;;;;;;0.30;99.90;;;;;;5031737;28;19906;-77
2023/12/20 09:28:29;;;;;;;;;;;0.40;99.90;;;;;;5031131;28;19912;-77
2023/12/20 09:30:55;;;;;;;;;;;0.40;99.90;;;;;;5030357;28;20385;-77
2023/12/20 09:33:20;;;;;;;;;;;0.40;99.90;;;;;;5014981;28;19909;-77
2023/12/20 09:35:47;;;;;;;;;;;0.30;99.90;;;;;;5014445;28;20004;-77
2023/12/20 09:38:14;;;;;;;;;;;0.30;99.90;;;;;;5014277;28;19905;-77
2023/12/20 09:40:41;;;;;;;;;;;0.40;99.90;;;;;;5015067;28;19928;-77
2023/12/20 09:43:18;;;;;;;;;;;0.40;99.90;;;;;;5032102;28;19909;-77
2023/12/20 09:45:45;;;;;;;;;;;0.30;99.90;;;;;;5035582;28;19909;-77
2023/12/20 09:48:11;;;;;;;;;;;0.30;99.90;;;;;;5037112;28;20377;-78
2023/12/20 09:50:37;;;;;;;;;;;0.30;99.90;;;;;;5035639;28;19917;-77
2023/12/20 09:53:04;;;;;;;;;;;0.30;99.90;;;;;;5017819;28;19909;-77
2023/12/20 09:55:31;;;;;;;;;;;0.30;99.90;;;;;;5017934;28;19916;-76
2023/12/20 09:57:56;;;;;;;;;;;0.30;99.90;;;;;;5032215;28;19916;-78
2023/12/20 10:00:22;;;;;;;;;;;0.20;99.90;;;;;;5017079;28;20329;-78
2023/12/20 10:02:56;;;;;;;;;;;0.30;99.90;;;;;;5018045;28;19916;-77
2023/12/20 10:05:25;;;;;;;;;;;0.20;99.90;;;;;;5017021;28;19945;-76
2023/12/20 10:07:51;;;;;;;;;;;0.30;99.90;;;;;;5017634;28;19909;-77
2023/12/20 10:10:16;;;;;;;;;;;0.40;99.90;;;;;;5032278;28;19924;-78
2023/12/20 10:13:00;;;;;;;;;;;0.50;99.90;;;;;;5032255;28;19913;-77
2023/12/20 10:15:25;;;;;;;;;;;0.40;99.90;;;;;;5017591;28;20110;-75
2023/12/20 10:17:51;;;;;;;;;;;0.60;99.90;;;;;;5032639;28;20354;-77
2023/12/20 10:20:16;;;;;;;;;;;0.70;99.90;;;;;;5032157;28;19906;-77
2023/12/20 10:22:42;;;;;;;;;;;0.70;99.90;;;;;;5032020;28;19909;-78
2023/12/20 10:25:08;;;;;;;;;;;0.40;99.90;;;;;;5017036;28;20000;-77
2023/12/20 10:27:33;;;;;;;;;;;0.40;99.90;;;;;;5016863;28;19916;-77
2023/12/20 10:29:59;;;;;;;;;;;0.50;99.90;;;;;;5017078;28;19909;-76
2023/12/20 10:32:26;;;;;;;;;;;0.60;99.90;;;;;;5015925;28;20468;-77
2023/12/20 10:34:52;;;;;;;;;;;0.70;99.90;;;;;;5032193;28;19945;-76
2023/12/20 10:37:18;;;;;;;;;;;0.70;99.90;;;;;;5018171;28;20432;-78
2023/12/20 10:39:44;;;;;;;;;;;1.00;99.90;;;;;;5032801;28;19909;-78
2023/12/20 10:42:11;;;;;;;;;;;1.00;99.90;;;;;;5032715;28;19915;-77
2023/12/20 10:44:36;;;;;;;;;;;1.10;99.90;;;;;;5032206;28;19992;-77
2023/12/20 10:47:03;;;;;;;;;;;1.10;99.90;;;;;;5017316;28;19941;-77
2023/12/20 10:49:29;;;;;;;;;;;1.00;99.90;;;;;;5016487;28;19909;-77
2023/12/20 10:51:57;;;;;;;;;;;0.90;99.90;;;;;;5017284;28;20449;-76
2023/12/20 10:54:22;;;;;;;;;;;0.80;99.90;;;;;;5031259;28;19909;-77
2023/12/20 10:56:50;;;;;;;;;;;0.80;99.90;;;;;;5017546;28;19909;-77
2023/12/20 10:59:18;;;;;;;;;;;0.70;99.90;;;;;;5032067;28;19992;-78
2023/12/20 11:01:44;;;;;;;;;;;0.60;99.90;;;;;;5033162;28;19909;-77
2023/12/20 11:04:14;;;;;;;;;;;0.70;99.90;;;;;;5017768;28;20392;-76
2023/12/20 11:06:45;;;;;;;;;;;0.70;99.90;;;;;;5032793;28;19913;-77
2023/12/20 11:09:27;;;;;;;;;;;0.90;99.90;;;;;;5032457;28;19933;-77
2023/12/20 11:12:10;;;;;;;;;;;1.10;99.90;;;;;;5032991;28;19917;-77
2023/12/20 11:14:45;;;;;;;;;;;1.30;99.90;;;;;;5017458;28;19909;-77
2023/12/20 11:17:13;;;;;;;;;;;1.50;99.90;;;;;;5015413;28;19910;-77
2023/12/20 11:20:01;;;;;;;;;;;1.80;99.90;;;;;;5032390;28;20329;-77
2023/12/20 11:22:29;;;;;;;;;;;1.90;99.90;;;;;;5016428;28;20437;-78
2023/12/20 11:24:57;;;;;;;;;;;2.00;99.90;;;;;;5018061;28;19905;-77
2023/12/20 11:27:23;;;;;;;;;;;2.10;99.90;;;;;;5017704;28;19931;-78
2023/12/20 11:29:52;;;;;;;;;;;2.20;99.90;;;;;;5017422;28;20370;-77
2023/12/20 11:32:24;;;;;;;;;;;2.30;99.90;;;;;;5035389;28;19920;-78
2023/12/20 11:34:56;;;;;;;;;;;2.30;99.90;;;;;;5017581;28;20012;-76
2023/12/20 11:37:22;;;;;;;;;;;2.40;99.90;;;;;;5015243;28;19959;-77
2023/12/20 11:40:00;;;;;;;;;;;2.40;99.90;;;;;;5030507;28;19959;-77
2023/12/20 11:42:25;;;;;;;;;;;2.30;99.90;;;;;;5014942;28;20000;-77
2023/12/20 11:44:51;;;;;;;;;;;2.20;99.90;;;;;;5030422;28;19984;-77
2023/12/20 11:47:19;;;;;;;;;;;2.10;99.90;;;;;;5031290;28;19909;-77
2023/12/20 11:49:46;;;;;;;;;;;2.00;99.90;;;;;;5031041;28;19963;-77
2023/12/20 11:52:12;;;;;;;;;;;2.00;99.90;;;;;;5015653;28;19955;-76
2023/12/20 11:54:38;;;;;;;;;;;2.10;99.90;;;;;;5030146;28;20441;-77
2023/12/20 11:57:04;;;;;;;;;;;1.90;99.90;;;;;;5016319;28;19959;-77
2023/12/20 11:59:31;;;;;;;;;;;1.80;99.90;;;;;;5031322;28;19909;-78
2023/12/20 12:02:00;;;;;;;;;;;1.80;99.90;;;;;;5016166;28;20579;-77
2023/12/20 12:04:26;;;;;;;;;;;2.00;99.90;;;;;;5016236;28;19928;-77
2023/12/20 12:06:52;;;;;;;;;;;2.00;99.90;;;;;;5014633;28;19909;-77
2023/12/20 12:09:17;;;;;;;;;;;2.00;99.90;;;;;;5016992;28;19956;-77
2023/12/20 12:11:43;;;;;;;;;;;2.10;99.90;;;;;;5016371;28;19913;-77
2023/12/20 12:14:09;;;;;;;;;;;2.00;99.90;;;;;;5016208;28;19954;-77
2023/12/20 12:16:34;;;;;;;;;;;2.00;99.90;;;;;;5015551;28;19905;-77
2023/12/20 12:19:00;;;;;;;;;;;2.00;99.90;;;;;;5032018;28;19910;-77
2023/12/20 12:21:26;;;;;;;;;;;2.00;99.90;;;;;;5016322;28;19905;-77
2023/12/20 12:23:51;;;;;;;;;;;2.10;99.90;;;;;;5015973;28;19905;-77
2023/12/20 12:26:17;;;;;;;;;;;2.10;99.90;;;;;;5016384;28;19912;-78
2023/12/20 12:28:42;;;;;;;;;;;2.00;99.90;;;;;;5031323;28;20369;-77
2023/12/20 12:31:09;;;;;;;;;;;2.00;99.90;;;;;;5030652;28;20031;-78
2023/12/20 12:33:34;;;;;;;;;;;2.10;99.90;;;;;;5014686;28;19909;-77
2023/12/20 12:36:01;;;;;;;;;;;2.10;99.90;;;;;;5014803;28;19951;-77
2023/12/20 12:38:27;;;;;;;;;;;2.20;99.90;;;;;;5029099;28;19912;-77
2023/12/20 12:40:53;;;;;;;;;;;2.20;99.90;;;;;;5029724;28;20338;-76
2023/12/20 12:43:19;;;;;;;;;;;2.10;99.90;;;;;;5014415;28;19909;-77
2023/12/20 12:45:44;;;;;;;;;;;2.10;99.90;;;;;;5030633;28;20295;-78
2023/12/20 12:48:10;;;;;;;;;;;2.10;99.90;;;;;;5016343;28;19910;-77
2023/12/20 12:50:35;;;;;;;;;;;2.10;99.90;;;;;;5016608;28;20398;-77
2023/12/20 12:53:02;;;;;;;;;;;2.00;99.90;;;;;;5015896;28;19909;-77
2023/12/20 12:55:28;;;;;;;;;;;1.90;99.90;;;;;;5031868;28;19915;-77
2023/12/20 12:57:53;;;;;;;;;;;2.00;99.90;;;;;;5016095;28;19988;-77
2023/12/20 13:00:19;;;;;;;;;;;1.90;99.90;;;;;;5015840;28;19909;-77
2023/12/20 13:02:45;;;;;;;;;;;2.00;99.90;;;;;;5014743;28;20398;-76
2023/12/20 13:05:10;;;;;;;;;;;2.10;99.90;;;;;;5014853;28;19963;-77
2023/12/20 13:07:37;;;;;;;;;;;2.10;99.90;;;;;;5014106;28;20294;-77
2023/12/20 13:10:03;;;;;;;;;;;2.00;99.90;;;;;;5030103;28;19924;-77
2023/12/20 13:12:29;;;;;;;;;;;2.00;99.90;;;;;;5014282;28;20317;-77
2023/12/20 13:14:55;;;;;;;;;;;1.90;99.90;;;;;;5014828;28;19913;-77
2023/12/20 13:17:20;;;;;;;;;;;2.00;99.90;;;;;;5018464;28;19906;-77
2023/12/20 13:19:46;;;;;;;;;;;2.00;99.90;;;;;;5034836;28;19917;-77
2023/12/20 13:22:12;;;;;;;;;;;2.00;99.90;;;;;;5034567;28;20310;-76
2023/12/20 13:24:37;;;;;;;;;;;2.00;99.90;;;;;;5020161;28;20565;-78
2023/12/20 13:27:03;;;;;;;;;;;2.00;99.90;;;;;;5034925;28;19906;-77
2023/12/20 13:29:28;;;;;;;;;;;2.10;99.90;;;;;;5019255;28;20472;-77
2023/12/20 13:31:54;;;;;;;;;;;2.20;99.90;;;;;;5033431;28;20335;-77
2023/12/20 13:34:19;;;;;;;;;;;2.10;99.90;;;;;;5019295;28;19909;-77
2023/12/20 13:36:47;;;;;;;;;;;2.10;99.90;;;;;;5018773;28;19910;-77
2023/12/20 13:39:13;;;;;;;;;;;2.10;99.90;;;;;;5034649;28;19909;-77
2023/12/20 13:41:38;;;;;;;;;;;2.00;99.90;;;;;;5037883;28;19909;-77
2023/12/20 13:44:04;;;;;;;;;;;2.00;99.90;;;;;;5035703;28;19906;-78
2023/12/20 13:46:30;;;;;;;;;;;2.00;99.90;;;;;;5018260;28;19905;-77
2023/12/20 13:48:55;;;;;;;;;;;2.10;99.90;;;;;;5033003;28;20449;-77
2023/12/20 13:51:21;;;;;;;;;;;2.10;99.90;;;;;;5018126;28;19921;-77
2023/12/20 13:53:48;;;;;;;;;;;2.10;99.90;;;;;;5017614;28;19909;-77
2023/12/20 13:56:14;;;;;;;;;;;2.20;99.90;;;;;;5033170;28;20328;-77
2023/12/20 13:58:40;;;;;;;;;;;2.20;99.90;;;;;;5017589;28;20008;-77
2023/12/20 14:01:06;;;;;;;;;;;2.10;99.90;;;;;;5017777;28;19913;-77
2023/12/20 14:03:32;;;;;;;;;;;2.10;99.90;;;;;;5032931;28;20007;-77
2023/12/20 14:05:57;;;;;;;;;;;2.20;99.90;;;;;;5017718;28;20349;-77
2023/12/20 14:08:23;;;;;;;;;;;2.10;99.90;;;;;;5018348;28;19971;-77
2023/12/20 14:10:50;;;;;;;;;;;2.10;99.90;;;;;;5018431;28;20373;-77
2023/12/20 14:13:15;;;;;;;;;;;2.10;99.90;;;;;;5018151;28;19913;-78
2023/12/20 14:15:41;;;;;;;;;;;2.20;99.90;;;;;;5018649;28;20438;-78